createdAt,value
2023-04-09T00:02:11.864Z,39.93
2023-04-09T00:05:40.195Z,33.90
2023-04-09T00:09:03.926Z,43.10
2023-04-09T00:12:30.214Z,43.63
2023-04-09T00:15:55.544Z,42.57
2023-04-09T00:19:19.133Z,44.50
2023-04-09T00:22:42.722Z,38.30
2023-04-09T00:26:06.958Z,41.13
2023-04-09T00:29:31.933Z,37.27
2023-04-09T00:32:55.846Z,37.30
2023-04-09T00:36:19.411Z,41.73
2023-04-09T00:39:42.965Z,47.87
2023-04-09T00:43:07.386Z,47.03
2023-04-09T00:46:33.415Z,43.07
2023-04-09T00:49:58.454Z,43.33
2023-04-09T00:53:22.179Z,40.97
2023-04-09T00:56:46.492Z,42.17
2023-04-09T01:00:11.340Z,34.87
2023-04-09T01:03:36.796Z,42.57
2023-04-09T01:07:06.454Z,44.83
2023-04-09T01:10:36.793Z,48.70
2023-04-09T01:14:07.687Z,38.60
2023-04-09T01:17:36.708Z,41.03
2023-04-09T01:21:07.207Z,41.47
2023-04-09T01:24:42.545Z,45.33
2023-04-09T01:28:17.414Z,42.87
2023-04-09T01:31:43.620Z,44.33
2023-04-09T01:35:09.591Z,43.73
2023-04-09T01:38:36.163Z,45.77
2023-04-09T01:42:00.848Z,52.93
2023-04-09T01:45:26.968Z,49.63
2023-04-09T01:48:51.287Z,55.90
2023-04-09T01:52:15.952Z,52.83
2023-04-09T01:55:39.580Z,56.87
2023-04-09T01:59:03.108Z,50.47
2023-04-09T02:02:36.659Z,54.03
2023-04-09T02:06:06.322Z,46.43
2023-04-09T02:09:32.572Z,48.00
2023-04-09T02:12:59.088Z,46.63
2023-04-09T02:16:24.217Z,54.80
2023-04-09T02:19:49.498Z,51.60
2023-04-09T02:23:13.158Z,47.07
2023-04-09T02:26:36.766Z,51.00
2023-04-09T02:30:00.345Z,54.87
2023-04-09T02:33:23.938Z,46.90
2023-04-09T02:36:48.782Z,46.20
2023-04-09T02:40:13.256Z,57.10
2023-04-09T02:43:36.833Z,56.03
2023-04-09T02:47:00.418Z,63.33
2023-04-09T02:50:24.058Z,55.90
2023-04-09T02:53:51.009Z,53.03
2023-04-09T02:57:14.537Z,57.20
2023-04-09T03:00:38.990Z,49.97
2023-04-09T03:04:03.897Z,52.53
2023-04-09T03:07:27.514Z,46.83
2023-04-09T03:10:52.392Z,51.63
2023-04-09T03:14:15.929Z,53.47
2023-04-09T03:17:40.185Z,58.57
2023-04-09T03:21:07.371Z,65.43
2023-04-09T03:24:33.430Z,61.50
2023-04-09T03:28:01.548Z,86.77
2023-04-09T03:31:34.178Z,80.30
2023-04-09T03:34:57.758Z,65.83
2023-04-09T03:38:21.482Z,54.30
2023-04-09T03:41:45.027Z,53.30
2023-04-09T03:45:13.514Z,56.17
2023-04-09T03:48:41.215Z,54.43
2023-04-09T03:52:05.082Z,52.70
2023-04-09T03:55:34.141Z,56.57
2023-04-09T03:59:01.389Z,52.03
2023-04-09T04:02:35.144Z,56.37
2023-04-09T04:06:04.925Z,54.83
2023-04-09T04:09:39.846Z,59.27
2023-04-09T04:13:09.915Z,68.23
2023-04-09T04:16:43.147Z,54.87
2023-04-09T04:20:10.756Z,59.43
2023-04-09T04:23:46.006Z,90.60
2023-04-09T04:27:15.219Z,79.97
2023-04-09T04:30:38.812Z,122.17
2023-04-09T04:34:05.176Z,119.90
2023-04-09T04:37:30.274Z,136.03
2023-04-09T04:40:56.437Z,113.33
2023-04-09T04:44:20.999Z,166.27
2023-04-09T04:47:48.388Z,175.17
2023-04-09T04:51:11.985Z,116.00
2023-04-09T04:54:41.635Z,93.50
2023-04-09T04:58:08.215Z,109.13
2023-04-09T05:01:41.257Z,105.47
2023-04-09T05:05:09.048Z,141.83
2023-04-09T05:08:38.525Z,125.53
2023-04-09T05:12:03.703Z,126.53
2023-04-09T05:15:28.297Z,114.53
2023-04-09T05:18:52.579Z,154.60
2023-04-09T05:22:16.427Z,161.67
2023-04-09T05:25:40.350Z,111.07
2023-04-09T05:29:10.566Z,151.80
2023-04-09T05:32:34.283Z,160.57
2023-04-09T05:35:58.227Z,118.10
2023-04-09T05:39:22.023Z,100.03
2023-04-09T05:42:45.772Z,117.70
2023-04-09T05:46:17.030Z,84.47
2023-04-09T05:49:41.555Z,88.70
2023-04-09T05:53:09.647Z,77.10
2023-04-09T05:56:38.312Z,66.60
2023-04-09T06:00:02.750Z,127.13
2023-04-09T06:03:28.800Z,108.80
2023-04-09T06:06:52.574Z,99.00
2023-04-09T06:10:17.346Z,138.73
2023-04-09T06:13:41.462Z,105.37
2023-04-09T06:17:05.002Z,79.03
2023-04-09T06:20:30.019Z,72.77
2023-04-09T06:23:54.410Z,115.07
2023-04-09T06:27:18.953Z,122.13
2023-04-09T06:30:42.485Z,96.33
2023-04-09T06:34:06.037Z,68.40
2023-04-09T06:37:30.938Z,50.53
2023-04-09T06:40:54.439Z,74.67
2023-04-09T06:44:17.956Z,62.80
2023-04-09T06:47:42.425Z,70.50
2023-04-09T06:51:08.220Z,81.03
2023-04-09T06:54:33.237Z,63.10
2023-04-09T06:57:56.737Z,75.33
2023-04-09T07:01:21.202Z,49.77
2023-04-09T07:04:44.909Z,48.40
2023-04-09T07:08:08.561Z,39.30
2023-04-09T07:11:33.623Z,62.47
2023-04-09T07:14:59.165Z,46.47
2023-04-09T07:18:22.745Z,45.47
2023-04-09T07:21:46.298Z,48.53
2023-04-09T07:25:10.371Z,46.67
2023-04-09T07:28:35.321Z,49.17
2023-04-09T07:32:00.998Z,51.83
2023-04-09T07:35:24.945Z,49.70
2023-04-09T07:38:48.529Z,44.23
2023-04-09T07:42:12.128Z,48.80
2023-04-09T07:45:37.121Z,39.80
2023-04-09T07:49:00.765Z,46.47
2023-04-09T07:52:24.321Z,43.50
2023-04-09T07:55:47.958Z,43.40
2023-04-09T07:59:11.628Z,40.83
2023-04-09T08:02:36.571Z,42.30
2023-04-09T08:06:00.139Z,41.47
2023-04-09T08:09:24.170Z,43.00
2023-04-09T08:12:49.344Z,34.50
2023-04-09T08:16:12.846Z,38.27
2023-04-09T08:19:39.825Z,41.57
2023-04-09T08:23:04.722Z,33.97
2023-04-09T08:26:28.549Z,30.70
2023-04-09T08:29:52.293Z,32.63
2023-04-09T08:33:16.276Z,33.77
2023-04-09T08:36:41.371Z,30.40
2023-04-09T08:40:05.436Z,31.53
2023-04-09T08:43:52.476Z,33.33
2023-04-09T08:47:14.830Z,28.43
2023-04-09T08:50:38.638Z,30.23
2023-04-09T08:54:05.022Z,28.80
2023-04-09T08:57:29.448Z,29.97
2023-04-09T09:00:53.015Z,26.40
2023-04-09T09:04:16.707Z,29.10
2023-04-09T09:07:54.449Z,29.60
2023-04-09T09:11:28.346Z,29.07
2023-04-09T09:14:54.301Z,28.90
2023-04-09T09:18:19.393Z,33.30
2023-04-09T09:21:43.346Z,28.17
2023-04-09T09:25:14.478Z,27.80
2023-04-09T09:28:39.518Z,22.47
2023-04-09T09:32:03.428Z,24.63
2023-04-09T09:35:27.252Z,26.00
2023-04-09T09:38:56.296Z,28.03
2023-04-09T09:42:20.463Z,28.43
2023-04-09T09:45:47.581Z,26.63
2023-04-09T09:49:11.232Z,25.00
2023-04-09T09:52:34.999Z,24.17
2023-04-09T09:56:01.031Z,28.20
2023-04-09T09:59:30.776Z,24.83
2023-04-09T10:03:00.923Z,24.87
2023-04-09T10:06:25.091Z,24.40
2023-04-09T10:09:51.556Z,24.30
2023-04-09T10:13:25.510Z,21.27
2023-04-09T10:16:49.802Z,18.37
2023-04-09T10:20:19.258Z,21.90
2023-04-09T10:23:45.898Z,18.33
2023-04-09T10:27:15.981Z,19.73
2023-04-09T10:30:40.312Z,20.17
2023-04-09T10:34:05.613Z,19.53
2023-04-09T10:37:30.904Z,17.47
2023-04-09T10:40:54.738Z,17.10
2023-04-09T10:44:22.613Z,18.27
2023-04-09T10:47:51.410Z,19.00
2023-04-09T10:51:20.821Z,16.73
2023-04-09T10:54:47.156Z,16.40
2023-04-09T10:58:13.465Z,20.10
2023-04-09T11:01:38.059Z,16.27
2023-04-09T11:05:07.967Z,15.40
2023-04-09T11:08:33.225Z,16.10
2023-04-09T11:11:58.175Z,14.67
2023-04-09T11:15:22.270Z,16.63
2023-04-09T11:18:45.914Z,14.90
2023-04-09T11:22:09.639Z,14.97
2023-04-09T11:25:34.971Z,13.97
2023-04-09T11:28:59.902Z,16.17
2023-04-09T11:32:23.587Z,15.07
2023-04-09T11:35:47.257Z,16.13
2023-04-09T11:39:10.905Z,16.87
2023-04-09T11:42:35.096Z,15.10
2023-04-09T11:46:00.633Z,14.30
2023-04-09T11:49:25.006Z,15.67
2023-04-09T11:52:49.664Z,13.93
2023-04-09T11:56:13.376Z,14.00
2023-04-09T11:59:40.896Z,15.60
2023-04-09T12:03:06.540Z,15.97
2023-04-09T12:06:30.438Z,14.30
2023-04-09T12:09:54.292Z,16.07
2023-04-09T12:13:18.269Z,16.20
2023-04-09T12:16:43.892Z,15.97
2023-04-09T12:20:10.963Z,16.20
2023-04-09T12:23:35.107Z,13.33
2023-04-09T12:26:59.045Z,15.93
2023-04-09T12:30:23.031Z,14.90
2023-04-09T12:33:46.797Z,16.47
2023-04-09T12:37:12.062Z,14.70
2023-04-09T12:40:36.940Z,14.60
2023-04-09T12:44:01.079Z,11.70
2023-04-09T12:47:24.750Z,13.63
2023-04-09T12:50:48.662Z,16.03
2023-04-09T12:54:13.765Z,13.80
2023-04-09T12:57:38.759Z,16.33
2023-04-09T13:01:04.134Z,15.07
2023-04-09T13:04:28.038Z,14.47
2023-04-09T13:07:51.737Z,14.67
2023-04-09T13:11:16.730Z,15.27
2023-04-09T13:14:40.899Z,16.43
2023-04-09T13:18:05.109Z,16.63
2023-04-09T13:21:28.793Z,14.80
2023-04-09T13:24:52.582Z,16.00
2023-04-09T13:28:17.836Z,17.33
2023-04-09T13:31:41.544Z,13.47
2023-04-09T13:35:05.475Z,13.93
2023-04-09T13:38:29.159Z,16.93
2023-04-09T13:41:55.170Z,15.63
2023-04-09T13:45:20.952Z,16.20
2023-04-09T13:48:44.769Z,18.63
2023-04-09T13:52:08.656Z,15.40
2023-04-09T13:55:32.650Z,15.33
2023-04-09T13:58:56.258Z,17.03
2023-04-09T14:02:21.573Z,16.30
2023-04-09T14:05:45.491Z,16.40
2023-04-09T14:09:09.572Z,14.60
2023-04-09T14:12:33.401Z,15.70
2023-04-09T14:16:00.849Z,17.70
2023-04-09T14:19:26.415Z,19.80
2023-04-09T14:22:50.752Z,15.87
2023-04-09T14:26:16.145Z,14.70
2023-04-09T14:29:43.050Z,13.53
2023-04-09T14:33:10.400Z,15.93
2023-04-09T14:36:36.338Z,14.63
2023-04-09T14:40:00.748Z,13.77
2023-04-09T14:43:24.613Z,14.13
2023-04-09T14:46:48.804Z,17.17
2023-04-09T14:50:14.735Z,17.50
2023-04-09T14:53:43.056Z,14.37
2023-04-09T14:57:07.154Z,15.37
2023-04-09T15:00:33.273Z,12.87
2023-04-09T15:03:59.129Z,14.50
2023-04-09T15:07:25.160Z,19.03
2023-04-09T15:10:51.998Z,15.80
2023-04-09T15:14:15.709Z,17.60
2023-04-09T15:17:42.172Z,17.23
2023-04-09T15:21:09.399Z,17.03
2023-04-09T15:24:33.731Z,15.90
2023-04-09T15:28:04.487Z,17.20
2023-04-09T15:31:28.790Z,18.83
2023-04-09T15:35:01.393Z,16.47
2023-04-09T15:38:26.037Z,14.20
2023-04-09T15:41:52.188Z,15.40
2023-04-09T15:45:18.682Z,17.70
2023-04-09T15:48:43.379Z,16.63
2023-04-09T15:52:08.012Z,17.87
2023-04-09T15:55:33.069Z,17.53
2023-04-09T15:58:59.011Z,17.83
2023-04-09T16:02:25.972Z,15.00
2023-04-09T16:05:50.168Z,15.13
2023-04-09T16:09:27.647Z,16.10
2023-04-09T16:12:51.880Z,18.33
2023-04-09T16:16:15.872Z,15.53
2023-04-09T16:19:43.502Z,15.83
2023-04-09T16:23:09.658Z,14.97
2023-04-09T16:26:39.142Z,14.43
2023-04-09T16:30:04.699Z,14.93
2023-04-09T16:33:30.980Z,16.20
2023-04-09T16:37:07.781Z,14.20
2023-04-09T16:40:48.367Z,17.87
2023-04-09T16:44:14.194Z,16.80
2023-04-09T16:47:50.116Z,17.10
2023-04-09T16:51:17.868Z,15.90
2023-04-09T16:54:46.533Z,14.90
2023-04-09T16:58:11.177Z,13.90
2023-04-09T17:01:36.307Z,15.07
2023-04-09T17:05:04.256Z,14.27
2023-04-09T17:08:31.270Z,16.40
2023-04-09T17:12:08.052Z,15.10
2023-04-09T17:19:02.364Z,13.90
2023-04-09T17:22:29.661Z,16.87
2023-04-09T17:25:56.063Z,17.90
2023-04-09T17:29:21.620Z,14.93
2023-04-09T17:32:45.815Z,15.60
2023-04-09T17:36:09.981Z,19.13
2023-04-09T17:39:33.965Z,16.33
2023-04-09T17:43:01.247Z,16.80
2023-04-09T17:46:27.385Z,14.83
2023-04-09T17:49:52.287Z,13.47
2023-04-09T17:53:27.272Z,17.50
2023-04-09T17:56:52.086Z,16.60
2023-04-09T18:00:16.665Z,20.37
2023-04-09T18:03:48.890Z,14.40
2023-04-09T18:07:14.283Z,15.63
2023-04-09T18:10:38.947Z,16.00
2023-04-09T18:14:08.356Z,20.10
2023-04-09T18:17:33.267Z,21.37
2023-04-09T18:20:59.621Z,22.63
2023-04-09T18:24:26.192Z,24.37
2023-04-09T18:27:50.008Z,23.03
2023-04-09T18:31:14.006Z,25.50
2023-04-09T18:34:46.510Z,29.57
2023-04-09T18:38:16.933Z,33.53
2023-04-09T18:41:50.445Z,27.80
2023-04-09T18:45:16.091Z,25.43
2023-04-09T18:48:43.198Z,27.07
2023-04-09T18:52:08.288Z,27.30
2023-04-09T18:55:35.799Z,31.70
2023-04-09T18:59:02.442Z,35.20
2023-04-09T19:02:29.661Z,35.53
2023-04-09T19:05:56.297Z,34.60
2023-04-09T19:09:21.520Z,32.70
2023-04-09T19:12:53.692Z,31.43
2023-04-09T19:16:18.555Z,30.83
2023-04-09T19:19:42.728Z,44.00
2023-04-09T19:23:06.611Z,42.40
2023-04-09T19:26:30.254Z,44.73
2023-04-09T19:29:58.689Z,49.03
2023-04-09T19:33:23.274Z,50.10
2023-04-09T19:36:47.017Z,43.17
2023-04-09T19:40:11.681Z,49.47
2023-04-09T19:43:37.475Z,65.10
2023-04-09T19:47:04.438Z,53.23
2023-04-09T19:50:28.310Z,57.97
2023-04-09T19:53:51.955Z,65.77
2023-04-09T19:57:16.454Z,60.93
2023-04-09T20:00:40.354Z,65.80
2023-04-09T20:04:05.828Z,63.60
2023-04-09T20:07:29.625Z,65.37
2023-04-09T20:10:53.483Z,57.47
2023-04-09T20:14:17.281Z,69.17
2023-04-09T20:17:41.711Z,69.43
2023-04-09T20:21:07.621Z,64.93
2023-04-09T20:24:32.174Z,78.67
2023-04-09T20:27:56.893Z,72.03
2023-04-09T20:31:20.623Z,84.13
2023-04-09T20:34:44.473Z,78.57
2023-04-09T20:38:10.053Z,70.67
2023-04-09T20:41:33.717Z,74.03
2023-04-09T20:44:58.562Z,71.53
2023-04-09T20:48:23.140Z,69.27
2023-04-09T20:51:46.889Z,56.50
2023-04-09T20:55:12.115Z,69.90
2023-04-09T20:58:37.781Z,69.53
2023-04-09T21:02:01.604Z,68.47
2023-04-09T21:05:26.191Z,65.93
2023-04-09T21:08:50.541Z,66.73
2023-04-09T21:12:16.523Z,73.00
2023-04-09T21:15:40.415Z,65.60
2023-04-09T21:19:09.135Z,68.87
2023-04-09T21:22:34.840Z,66.90
2023-04-09T21:25:59.106Z,79.30
2023-04-09T21:29:24.658Z,76.80
2023-04-09T21:32:49.185Z,70.87
2023-04-09T21:36:13.212Z,64.33
2023-04-09T21:39:37.276Z,69.27
2023-04-09T21:43:01.656Z,69.53
2023-04-09T21:46:27.641Z,68.50
2023-04-09T21:49:51.380Z,73.90
2023-04-09T21:53:15.127Z,69.67
2023-04-09T21:56:39.393Z,78.83
2023-04-09T22:00:03.263Z,70.47
2023-04-09T22:03:32.794Z,66.83
2023-04-09T22:06:59.384Z,71.20
2023-04-09T22:10:27.035Z,65.73
2023-04-09T22:13:51.012Z,63.90
2023-04-09T22:17:15.885Z,66.30
2023-04-09T22:20:41.690Z,72.50
2023-04-09T22:24:05.557Z,74.50
2023-04-09T22:27:30.257Z,68.20
2023-04-09T22:30:56.702Z,76.50
2023-04-09T22:34:23.693Z,73.13
2023-04-09T22:37:49.685Z,73.80
2023-04-09T22:41:13.578Z,74.27
2023-04-09T22:44:37.401Z,75.00
2023-04-09T22:48:01.451Z,65.20
2023-04-09T22:51:25.379Z,67.80
2023-04-09T22:54:50.669Z,73.87
2023-04-09T22:58:15.656Z,71.97
2023-04-09T23:01:41.065Z,70.80
2023-04-09T23:05:06.407Z,75.47
2023-04-09T23:08:30.441Z,68.37
2023-04-09T23:11:56.841Z,67.13
2023-04-09T23:15:21.345Z,69.93
2023-04-09T23:18:46.539Z,72.37
2023-04-09T23:22:10.552Z,65.30
2023-04-09T23:25:34.390Z,65.47
2023-04-09T23:28:59.716Z,71.57
2023-04-09T23:32:24.475Z,69.57
2023-04-09T23:35:48.378Z,68.77
2023-04-09T23:39:12.349Z,76.37
2023-04-09T23:42:36.379Z,74.77
2023-04-09T23:46:01.951Z,64.03
2023-04-09T23:49:32.647Z,61.27
2023-04-09T23:52:59.637Z,66.67
2023-04-09T23:56:25.069Z,71.00
2023-04-09T23:59:58.251Z,70.37
